Time;durP1;ratioP1;P1;durP2;ratioP2;P2;SDS_P1;SDS_P2;PMS_P1;PMS_P2;Temp;Humidity;BMP_temperature;BMP_pressure;BME280_temperature;BME280_humidity;BME280_pressure;Samples;Min_cycle;Max_cycle;Signal;HPM_P1;HPM_P2
2021/07/19 00:04:41;;;;;;;5.50;4.82;;;;;;;16.77;79.23;102213.75;10462013;28;20056;-61
2021/07/19 00:09:44;;;;;;;7.00;4.20;;;;;;;16.39;80.75;102209.00;10461939;28;20223;-61
2021/07/19 00:14:47;;;;;;;7.70;4.45;;;;;;;16.62;79.28;102207.59;10462465;28;20481;-62
2021/07/19 00:19:50;;;;;;;7.60;3.65;;;;;;;16.33;80.54;102202.28;10462046;28;20512;-62
2021/07/19 00:24:52;;;;;;;7.03;4.07;;;;;;;16.22;80.38;102199.41;10462353;28;20056;-62
2021/07/19 00:29:54;;;;;;;8.18;5.05;;;;;;;16.21;80.43;102195.09;10462775;28;20060;-62
2021/07/19 00:34:57;;;;;;;8.05;4.70;;;;;;;16.07;80.72;102195.91;10460735;28;20052;-62
2021/07/19 00:39:59;;;;;;;6.38;4.88;;;;;;;15.83;82.16;102197.31;10461541;28;20397;-61
2021/07/19 00:45:05;;;;;;;11.38;4.65;;;;;;;16.03;80.57;102193.53;10461036;28;20386;-63
2021/07/19 00:50:08;;;;;;;13.80;4.63;;;;;;;15.93;81.13;102180.84;10461297;28;20060;-61
2021/07/19 00:55:12;;;;;;;6.03;3.97;;;;;;;15.99;80.73;102190.22;10460629;28;20045;-60
2021/07/19 01:00:15;;;;;;;7.13;4.38;;;;;;;15.46;82.66;102184.38;10459485;28;20053;-61
2021/07/19 01:05:18;;;;;;;8.20;4.35;;;;;;;15.67;81.57;102190.25;10459659;28;20049;-62
2021/07/19 01:10:21;;;;;;;7.57;4.90;;;;;;;15.50;82.55;102187.69;10460629;28;20053;-61
2021/07/19 01:15:29;;;;;;;7.45;4.13;;;;;;;15.64;81.61;102194.84;10460404;28;20051;-62
2021/07/19 01:20:34;;;;;;;11.35;4.22;;;;;;;15.48;82.12;102187.78;10458841;28;20049;-61
2021/07/19 01:25:58;;;;;;;8.10;5.18;;;;;;;15.22;83.34;102197.16;10459754;28;20506;-62
2021/07/19 01:31:03;;;;;;;6.50;4.30;;;;;;;15.33;82.06;102199.19;10459714;28;20049;-63
2021/07/19 01:36:06;;;;;;;6.93;5.10;;;;;;;15.08;83.33;102200.53;10458405;28;20045;-63
2021/07/19 01:41:10;;;;;;;6.88;5.30;;;;;;;15.40;81.55;102196.13;10458525;28;20053;-61
2021/07/19 01:46:13;;;;;;;6.50;4.80;;;;;;;15.19;82.59;102184.97;10458080;28;20517;-64
2021/07/19 01:51:16;;;;;;;7.40;4.88;;;;;;;15.12;82.22;102177.50;10458656;28;20079;-63
2021/07/19 01:56:19;;;;;;;7.10;5.15;;;;;;;15.16;81.79;102177.25;10457721;28;20060;-63
2021/07/19 02:01:21;;;;;;;9.52;4.60;;;;;;;14.99;82.21;102170.22;10457283;28;20067;-61
2021/07/19 02:06:25;;;;;;;11.93;7.20;;;;;;;14.84;82.95;102166.66;10457235;28;20091;-61
2021/07/19 02:11:29;;;;;;;6.85;5.05;;;;;;;14.89;82.69;102160.28;10456512;28;20056;-61
2021/07/19 02:16:31;;;;;;;7.90;5.03;;;;;;;14.98;81.63;102165.91;10457768;28;20058;-62
2021/07/19 02:21:34;;;;;;;7.30;5.32;;;;;;;14.67;83.35;102161.41;10456790;28;20048;-62
2021/07/19 02:26:37;;;;;;;11.20;5.43;;;;;;;14.74;82.56;102164.56;10456922;28;20059;-61
2021/07/19 02:31:40;;;;;;;6.15;4.97;;;;;;;14.71;82.81;102176.16;10456299;28;20053;-62
2021/07/19 02:36:42;;;;;;;9.73;5.05;;;;;;;14.66;82.20;102170.28;10456264;28;20056;-62
2021/07/19 02:41:45;;;;;;;11.38;6.72;;;;;;;14.66;82.72;102172.91;10455878;28;20544;-61
2021/07/19 02:46:50;;;;;;;9.73;5.43;;;;;;;14.60;82.72;102181.97;10455599;28;20496;-61
2021/07/19 02:51:53;;;;;;;6.43;5.60;;;;;;;14.62;83.13;102181.88;10456760;28;20557;-62
2021/07/19 02:56:55;;;;;;;9.32;6.95;;;;;;;14.54;83.17;102190.19;10455687;28;20053;-60
2021/07/19 03:01:58;;;;;;;8.13;6.15;;;;;;;14.52;82.98;102184.13;10455566;28;20064;-63
2021/07/19 03:07:03;;;;;;;7.72;6.00;;;;;;;14.59;82.83;102182.91;10455284;28;20501;-62
2021/07/19 03:12:07;;;;;;;6.50;5.32;;;;;;;14.45;82.55;102188.00;10455593;28;20103;-63
2021/07/19 03:17:11;;;;;;;10.80;6.47;;;;;;;14.45;83.06;102194.13;10454824;28;20049;-61
2021/07/19 03:22:14;;;;;;;9.80;6.57;;;;;;;14.47;83.16;102194.91;10458030;28;20493;-62
2021/07/19 03:27:16;;;;;;;9.65;6.30;;;;;;;14.39;83.27;102183.03;10463684;28;20051;-60
2021/07/19 03:32:23;;;;;;;10.25;6.85;;;;;;;14.29;83.58;102178.25;10464414;28;20056;-60
2021/07/19 03:37:26;;;;;;;10.18;6.07;;;;;;;14.42;82.11;102186.38;10463049;28;20099;-61
2021/07/19 03:42:28;;;;;;;12.13;7.60;;;;;;;14.22;83.47;102174.25;10463157;28;20044;-62
2021/07/19 03:47:31;;;;;;;11.07;7.38;;;;;;;14.26;83.72;102185.47;10462565;28;20052;-61
2021/07/19 03:52:41;;;;;;;10.50;6.47;;;;;;;14.16;83.91;102197.41;10462854;28;20056;-61
2021/07/19 03:57:44;;;;;;;9.30;6.95;;;;;;;14.26;83.47;102196.84;10464271;28;20052;-62
2021/07/19 04:02:52;;;;;;;10.32;7.00;;;;;;;14.43;83.17;102206.53;10461991;28;20057;-64
2021/07/19 04:07:56;;;;;;;12.38;7.22;;;;;;;14.29;84.59;102206.41;10446187;28;20055;-61
2021/07/19 04:12:59;;;;;;;13.40;6.93;;;;;;;14.42;84.19;102198.69;10462181;28;20045;-61
2021/07/19 04:18:01;;;;;;;9.50;6.63;;;;;;;14.46;83.57;102192.34;10445293;28;20415;-61
2021/07/19 04:23:10;;;;;;;13.05;7.65;;;;;;;14.43;84.42;102203.91;10461227;28;20489;-61
2021/07/19 04:28:15;;;;;;;10.65;6.05;;;;;;;14.52;84.29;102192.03;10462210;28;20408;-61
2021/07/19 04:33:19;;;;;;;9.40;7.05;;;;;;;14.47;83.99;102192.28;10462183;28;20049;-61
2021/07/19 04:38:22;;;;;;;9.38;6.38;;;;;;;14.51;84.59;102200.88;10460865;28;20045;-61
2021/07/19 04:43:26;;;;;;;9.40;6.90;;;;;;;14.66;84.06;102201.91;10461597;28;20402;-62
2021/07/19 04:48:29;;;;;;;10.20;6.97;;;;;;;14.85;83.82;102213.16;10461337;28;20057;-62
2021/07/19 04:53:32;;;;;;;13.18;6.75;;;;;;;15.04;83.43;102213.03;10461250;28;20477;-63
2021/07/19 04:58:35;;;;;;;9.35;6.75;;;;;;;15.07;84.21;102206.75;10461179;28;20053;-61
2021/07/19 05:03:38;;;;;;;10.55;7.35;;;;;;;15.08;83.80;102197.03;10459875;28;20057;-62
2021/07/19 05:08:47;;;;;;;12.50;7.18;;;;;;;15.16;83.32;102201.00;10459771;28;20068;-61
2021/07/19 05:13:49;;;;;;;10.73;7.68;;;;;;;15.50;83.34;102201.75;10459530;28;20049;-62
2021/07/19 05:18:53;;;;;;;10.52;7.95;;;;;;;15.49;83.29;102213.25;10459510;28;20492;-63
2021/07/19 05:23:55;;;;;;;15.45;8.38;;;;;;;15.64;83.15;102215.97;10460020;28;20516;-62
2021/07/19 05:28:57;;;;;;;12.70;9.23;;;;;;;15.73;83.52;102226.00;10459847;28;20045;-61
2021/07/19 05:34:00;;;;;;;11.20;8.82;;;;;;;15.65;83.96;102221.16;10459860;28;20055;-62
2021/07/19 05:39:02;;;;;;;12.55;8.18;;;;;;;16.13;82.39;102208.72;10458439;28;20091;-63
2021/07/19 05:44:04;;;;;;;12.05;8.98;;;;;;;16.10;82.62;102219.47;10458238;28;20048;-64
2021/07/19 05:49:07;;;;;;;12.10;8.80;;;;;;;16.08;83.16;102217.88;10458785;28;20079;-62
2021/07/19 05:54:09;;;;;;;13.63;8.93;;;;;;;16.22;82.10;102211.78;10457762;28;20056;-62
2021/07/19 05:59:11;;;;;;;15.50;10.43;;;;;;;16.14;83.04;102220.19;10458535;28;20060;-61
2021/07/19 06:04:14;;;;;;;13.32;9.63;;;;;;;16.71;81.31;102207.06;10458516;28;20055;-61
2021/07/19 06:09:16;;;;;;;18.80;9.93;;;;;;;16.71;81.86;102219.44;10458287;28;20056;-61
2021/07/19 06:14:18;;;;;;;17.85;10.73;;;;;;;16.82;79.60;102218.78;10457005;28;20063;-61
2021/07/19 06:19:21;;;;;;;15.63;9.50;;;;;;;17.13;80.51;102230.13;10457612;28;20053;-61
2021/07/19 06:24:23;;;;;;;18.75;10.73;;;;;;;16.89;80.05;102233.34;10457820;28;20056;-60
2021/07/19 06:29:25;;;;;;;16.58;8.93;;;;;;;17.35;79.07;102235.78;10456406;28;20049;-62
2021/07/19 06:34:30;;;;;;;12.35;7.38;;;;;;;17.55;77.80;102231.00;10457060;28;20504;-61
2021/07/19 06:39:33;;;;;;;14.80;7.47;;;;;;;17.74;78.90;102220.91;10457060;28;20390;-61
2021/07/19 06:44:35;;;;;;;14.15;7.85;;;;;;;17.64;77.99;102219.81;10457350;28;20429;-61
2021/07/19 06:49:37;;;;;;;12.80;7.53;;;;;;;18.12;77.11;102217.59;10456989;28;20045;-61
2021/07/19 06:54:40;;;;;;;10.50;6.80;;;;;;;18.65;75.85;102217.53;10456448;28;20049;-62
2021/07/19 06:59:42;;;;;;;17.77;7.82;;;;;;;18.78;74.20;102229.91;10456651;28;20409;-59
2021/07/19 07:04:45;;;;;;;12.80;7.53;;;;;;;18.45;73.07;102220.69;10455476;28;20049;-61
2021/07/19 07:09:48;;;;;;;11.55;7.28;;;;;;;18.72;72.15;102232.03;10456663;28;20053;-60
2021/07/19 07:14:54;;;;;;;17.92;9.27;;;;;;;18.96;71.64;102218.03;10455181;28;20045;-60
2021/07/19 07:19:57;;;;;;;12.48;7.43;;;;;;;18.65;71.11;102216.69;10456145;28;20061;-60
2021/07/19 07:24:59;;;;;;;12.18;7.13;;;;;;;19.62;72.43;102220.44;10456444;28;20071;-61
2021/07/19 07:30:04;;;;;;;11.65;7.57;;;;;;;19.30;72.06;102220.97;10456103;28;20049;-59
2021/07/19 07:35:07;;;;;;;12.90;7.80;;;;;;;19.12;70.96;102218.66;10456161;28;20045;-60
2021/07/19 07:40:14;;;;;;;19.13;9.70;;;;;;;19.35;71.09;102220.63;10456572;28;20049;-58
2021/07/19 07:45:16;;;;;;;15.45;8.30;;;;;;;19.38;71.61;102229.22;10455127;28;20048;-60
2021/07/19 07:50:18;;;;;;;16.80;7.60;;;;;;;19.22;70.73;102231.31;10455476;28;20124;-60
2021/07/19 07:55:20;;;;;;;13.77;8.27;;;;;;;19.23;71.61;102235.63;10455407;28;20056;-61
2021/07/19 08:00:23;;;;;;;13.52;8.80;;;;;;;19.24;69.19;102240.00;10455613;28;20045;-63
2021/07/19 08:05:26;;;;;;;14.18;8.05;;;;;;;19.19;70.84;102235.00;10454242;28;20049;-61
2021/07/19 08:10:28;;;;;;;17.67;8.00;;;;;;;19.13;69.05;102238.09;10461461;28;20515;-59
2021/07/19 08:15:33;;;;;;;13.50;6.97;;;;;;;19.10;70.92;102235.69;10462858;28;20048;-60
2021/07/19 08:20:35;;;;;;;9.18;6.45;;;;;;;19.44;70.38;102234.09;10461600;28;20061;-60
2021/07/19 08:25:38;;;;;;;8.98;6.22;;;;;;;19.15;67.48;102235.31;10462118;28;20401;-60
2021/07/19 08:30:41;;;;;;;12.43;6.72;;;;;;;20.19;68.29;102222.41;10461974;28;20052;-59
2021/07/19 08:35:45;;;;;;;12.93;6.47;;;;;;;20.37;66.63;102221.94;10462215;28;20057;-60
2021/07/19 08:40:48;;;;;;;8.40;6.43;;;;;;;20.55;64.48;102212.56;10461816;28;20496;-60
2021/07/19 08:46:11;;;;;;;9.82;7.28;;;;;;;20.02;64.50;102215.72;10462087;28;20049;-61
2021/07/19 08:51:13;;;;;;;9.15;6.15;;;;;;;20.70;64.11;102213.22;10461425;28;20048;-61
2021/07/19 08:56:16;;;;;;;9.20;6.22;;;;;;;21.21;61.95;102216.34;10461237;28;20045;-60
2021/07/19 09:01:18;;;;;;;9.82;6.45;;;;;;;20.95;62.72;102220.09;10461329;28;20053;-61
2021/07/19 09:06:22;;;;;;;10.07;6.57;;;;;;;20.49;61.14;102228.97;10460617;28;20440;-60
2021/07/19 09:11:24;;;;;;;13.45;7.30;;;;;;;20.41;63.29;102221.59;10443193;28;20060;-61
2021/07/19 09:16:37;;;;;;;9.15;6.13;;;;;;;20.66;62.81;102211.75;10459895;28;20483;-62
2021/07/19 09:21:45;;;;;;;9.68;6.90;;;;;;;20.82;63.08;102214.06;10417947;28;20080;-60
2021/07/19 09:26:49;;;;;;;8.27;6.32;;;;;;;21.36;61.17;102219.59;10418327;28;20052;-61
2021/07/19 09:31:54;;;;;;;9.95;6.57;;;;;;;20.96;59.71;102219.16;10417344;28;20052;-60
2021/07/19 09:37:06;;;;;;;10.60;5.97;;;;;;;21.11;61.69;102211.72;10418409;28;20456;-60
2021/07/19 09:42:18;;;;;;;11.25;7.03;;;;;;;21.06;61.93;102207.75;10418583;28;20053;-61
2021/07/19 09:47:30;;;;;;;;;;;;;;;20.10;61.60;102199.16;10418537;28;20042;-61
2021/07/19 09:52:34;;;;;;;10.57;6.70;;;;;;;21.07;60.88;102198.81;10418324;28;19925;-60
2021/07/19 09:57:37;;;;;;;9.80;6.95;;;;;;;20.56;60.16;102187.66;10417349;28;20107;-60
2021/07/19 10:02:43;;;;;;;12.38;7.05;;;;;;;21.23;59.97;102187.75;10417550;28;20053;-60
2021/07/19 10:07:46;;;;;;;8.82;7.15;;;;;;;21.80;57.26;102186.63;10416846;28;20075;-60
2021/07/19 10:13:02;;;;;;;9.20;7.43;;;;;;;23.23;55.67;102183.34;10417239;28;20046;-61
2021/07/19 10:18:10;;;;;;;10.75;7.40;;;;;;;22.55;57.59;102178.59;10416629;28;20054;-61
2021/07/19 10:23:13;;;;;;;11.13;7.65;;;;;;;22.26;56.29;102171.25;10416744;28;20049;-60
2021/07/19 10:28:16;;;;;;;12.65;7.80;;;;;;;22.74;56.98;102178.66;10416476;28;20081;-61
2021/07/19 10:33:19;;;;;;;10.63;8.23;;;;;;;21.32;59.38;102174.53;10414711;28;20045;-61
2021/07/19 10:38:26;;;;;;;13.85;7.97;;;;;;;21.41;58.44;102174.75;10415920;28;20513;-59
2021/07/19 10:43:29;;;;;;;12.02;8.07;;;;;;;21.76;57.89;102173.72;10415777;28;20476;-60
2021/07/19 10:48:33;;;;;;;10.00;7.43;;;;;;;23.74;55.54;102159.03;10415437;28;20477;-60
2021/07/19 10:53:35;;;;;;;11.57;7.22;;;;;;;21.64;58.45;102172.91;10415636;28;20056;-59
2021/07/19 10:58:44;;;;;;;11.43;7.82;;;;;;;23.85;54.55;102160.75;10416058;28;20077;-59
2021/07/19 11:03:46;;;;;;;10.38;7.68;;;;;;;25.15;51.73;102151.13;10415381;28;20092;-60
2021/07/19 11:08:50;;;;;;;13.75;7.53;;;;;;;23.87;53.45;102152.59;10415088;28;20045;-63
2021/07/19 11:14:26;;;;;;;10.38;6.35;;;;;;;23.82;56.04;102145.00;10414140;28;20064;-61
2021/07/19 11:19:36;;;;;;;11.05;8.75;;;;;;;22.56;55.29;102137.56;10410281;28;20060;-63
2021/07/19 11:24:48;;;;;;;;;;;;;;;23.43;54.56;102146.81;10415612;28;20103;-62
2021/07/19 11:30:04;;;;;;;10.55;7.70;;;;;;;23.38;53.63;102136.53;10414935;28;19927;-59
2021/07/19 11:35:20;;;;;;;11.68;7.85;;;;;;;23.13;52.06;102136.09;10416942;28;20053;-60
2021/07/19 11:40:31;;;;;;;15.90;9.10;;;;;;;23.90;53.40;102137.09;10414787;28;20056;-60
2021/07/19 11:45:42;;;;;;;10.80;7.80;;;;;;;23.26;52.93;102134.97;10417040;28;20076;-61
2021/07/19 11:50:45;;;;;;;8.85;7.30;;;;;;;25.00;51.96;102134.75;10421294;28;20049;-61
2021/07/19 11:55:47;;;;;;;12.00;8.50;;;;;;;24.70;52.91;102126.03;10420122;28;20057;-60
2021/07/19 12:00:53;;;;;;;11.13;7.13;;;;;;;24.84;52.37;102119.31;10422248;28;20057;-60
2021/07/19 12:05:57;;;;;;;9.98;8.25;;;;;;;22.66;54.22;102116.25;10422144;28;20061;-59
2021/07/19 12:11:02;;;;;;;12.10;7.88;;;;;;;24.78;50.50;102104.69;10420634;28;20057;-60
2021/07/19 12:16:04;;;;;;;9.80;7.82;;;;;;;24.11;51.79;102104.81;10421276;28;20512;-61
2021/07/19 12:21:09;;;;;;;11.00;7.90;;;;;;;25.12;49.03;102101.38;10421382;28;20064;-62
2021/07/19 12:26:18;;;;;;;11.07;9.30;;;;;;;24.12;51.04;102094.94;10421585;28;20049;-61
2021/07/19 12:31:30;;;;;;;16.48;8.35;;;;;;;25.33;49.49;102089.53;10420984;28;20060;-60
2021/07/19 12:36:33;;;;;;;9.43;7.82;;;;;;;24.44;53.40;102091.88;10420391;28;20092;-62
2021/07/19 12:41:36;;;;;;;10.05;7.78;;;;;;;23.95;54.40;102082.34;10420642;28;20530;-59
2021/07/19 12:46:46;;;;;;;11.27;8.18;;;;;;;23.60;54.49;102079.25;10420446;28;20053;-61
2021/07/19 12:52:00;;;;;;;10.38;7.85;;;;;;;23.64;55.02;102079.84;10419117;28;20046;-63
2021/07/19 12:57:24;;;;;;;14.02;8.18;;;;;;;22.71;57.39;102082.00;10418812;28;20045;-61
2021/07/19 13:02:26;;;;;;;9.80;7.68;;;;;;;23.20;56.84;102080.28;10419827;28;20425;-61
2021/07/19 13:07:32;;;;;;;10.02;7.78;;;;;;;23.50;55.83;102073.09;10419687;28;20053;-60
2021/07/19 13:12:36;;;;;;;12.60;8.60;;;;;;;23.54;56.22;102070.00;10418369;28;20045;-61
2021/07/19 13:17:38;;;;;;;13.98;9.77;;;;;;;26.29;50.33;102070.75;10418057;28;20058;-61
2021/07/19 13:22:43;;;;;;;11.93;9.93;;;;;;;23.42;52.05;102064.94;10419587;28;20053;-60
2021/07/19 13:27:46;;;;;;;10.57;8.35;;;;;;;26.33;48.21;102060.53;10418731;28;20490;-63
2021/07/19 13:32:56;;;;;;;16.63;9.55;;;;;;;24.34;44.98;102055.44;10417534;28;20046;-60
2021/07/19 13:38:00;;;;;;;10.30;7.83;;;;;;;25.62;50.54;102059.78;10418649;28;20042;-63
2021/07/19 13:43:06;;;;;;;11.52;8.43;;;;;;;25.00;49.12;102054.38;10416849;28;20062;-60
2021/07/19 13:48:08;;;;;;;15.10;9.23;;;;;;;24.02;52.53;102054.00;10417146;28;20045;-60
2021/07/19 13:53:10;;;;;;;13.15;8.70;;;;;;;23.08;55.60;102057.34;10417601;28;20053;-61
2021/07/19 13:58:13;;;;;;;13.25;9.23;;;;;;;23.74;55.28;102289.22;10417457;28;20052;-61
2021/07/19 14:03:20;;;;;;;9.65;7.80;;;;;;;23.87;55.36;102284.50;10417205;28;20494;-60
2021/07/19 14:08:23;;;;;;;10.95;9.30;;;;;;;23.24;55.72;102225.94;10416539;28;20048;-61
2021/07/19 14:13:26;;;;;;;12.57;9.65;;;;;;;24.27;53.34;102280.81;10417195;28;20050;-61
2021/07/19 14:18:29;;;;;;;11.85;9.68;;;;;;;25.56;47.68;102280.28;10416787;28;20084;-63
2021/07/19 14:23:31;;;;;;;11.23;8.43;;;;;;;26.96;46.51;102270.66;10416670;28;20061;-63
2021/07/19 14:28:34;;;;;;;12.00;8.82;;;;;;;27.62;46.89;102088.81;10416314;28;20477;-61
2021/07/19 14:33:36;;;;;;;9.15;8.05;;;;;;;23.74;50.04;102043.25;10416671;28;20050;-62
2021/07/19 14:38:38;;;;;;;14.10;8.40;;;;;;;23.98;56.32;102111.47;10416158;28;20053;-61
2021/07/19 14:43:41;;;;;;;13.45;9.05;;;;;;;23.04;53.24;102032.72;10416536;28;20051;-60
2021/07/19 14:48:43;;;;;;;14.52;9.35;;;;;;;23.08;54.70;102036.84;10416141;28;20059;-62
2021/07/19 14:53:46;;;;;;;15.18;8.25;;;;;;;23.60;55.38;102035.66;10414487;28;20508;-60
2021/07/19 14:58:48;;;;;;;13.27;8.20;;;;;;;23.03;57.30;102024.84;10415670;28;20046;-62
2021/07/19 15:03:50;;;;;;;11.00;7.82;;;;;;;22.78;58.12;102024.41;10414355;28;20049;-61
2021/07/19 15:08:53;;;;;;;15.57;8.80;;;;;;;22.86;59.43;102016.53;10415598;28;20068;-60
2021/07/19 15:13:55;;;;;;;13.35;8.75;;;;;;;22.89;60.65;102018.94;10415179;28;20402;-60
2021/07/19 15:19:00;;;;;;;11.80;7.45;;;;;;;22.95;60.55;102028.22;10425728;28;20103;-62
2021/07/19 15:24:03;;;;;;;11.82;8.45;;;;;;;22.81;57.02;102018.78;10428804;28;20049;-61
2021/07/19 15:29:05;;;;;;;9.30;7.43;;;;;;;23.38;58.33;102021.63;10428622;28;20054;-61
2021/07/19 15:34:08;;;;;;;11.65;7.75;;;;;;;22.82;57.31;102010.63;10428195;28;20490;-61
2021/07/19 15:39:10;;;;;;;11.60;7.90;;;;;;;23.12;58.70;102008.84;10428247;28;20045;-60
2021/07/19 15:44:12;;;;;;;11.70;8.57;;;;;;;22.54;56.89;102009.59;10428211;28;20049;-61
2021/07/19 15:49:15;;;;;;;13.30;8.23;;;;;;;22.40;56.66;102015.34;10427974;28;20045;-61
2021/07/19 15:54:17;;;;;;;10.77;8.02;;;;;;;23.03;56.41;102004.31;10428110;28;20060;-62
2021/07/19 15:59:19;;;;;;;12.85;7.93;;;;;;;24.08;54.31;102008.78;10428127;28;20049;-62
2021/07/19 16:04:22;;;;;;;12.55;8.95;;;;;;;22.37;56.73;102011.09;10427932;28;20466;-61
2021/07/19 16:09:24;;;;;;;14.13;9.85;;;;;;;22.27;57.01;102013.72;10428144;28;20049;-61
2021/07/19 16:14:27;;;;;;;12.48;8.80;;;;;;;22.45;56.69;102007.75;10427794;28;20159;-61
2021/07/19 16:19:30;;;;;;;8.70;7.80;;;;;;;22.03;55.92;102008.72;10428497;28;20057;-60
2021/07/19 16:24:32;;;;;;;10.48;8.43;;;;;;;22.13;57.88;102013.25;10427709;28;20060;-60
2021/07/19 16:29:35;;;;;;;12.60;8.63;;;;;;;22.22;57.91;102013.25;10423283;28;20045;-62
2021/07/19 16:34:37;;;;;;;12.20;8.10;;;;;;;22.40;55.63;102008.16;10420832;28;20053;-60
2021/07/19 16:39:39;;;;;;;10.10;8.00;;;;;;;22.94;54.67;102003.34;10420729;28;20050;-61
2021/07/19 16:44:42;;;;;;;12.55;7.57;;;;;;;23.22;52.81;102002.66;10420070;28;20064;-60
2021/07/19 16:49:44;;;;;;;9.05;7.70;;;;;;;22.70;53.89;102001.06;10420338;28;20050;-62
2021/07/19 16:54:46;;;;;;;12.85;7.85;;;;;;;22.51;56.60;101990.34;10419831;28;20056;-62
2021/07/19 16:59:49;;;;;;;11.48;7.82;;;;;;;22.22;55.07;101989.25;10420008;28;20129;-61
2021/07/19 17:04:51;;;;;;;14.88;9.93;;;;;;;22.24;56.82;101991.78;10421043;28;20045;-60
2021/07/19 17:09:53;;;;;;;13.40;8.77;;;;;;;22.30;55.27;101995.78;10458963;28;20053;-61
2021/07/19 17:14:56;;;;;;;13.23;8.23;;;;;;;21.94;57.04;101995.31;10459004;28;20045;-62
2021/07/19 17:20:03;;;;;;;11.82;7.95;;;;;;;21.36;57.03;102004.66;10458972;28;20056;-61
2021/07/19 17:25:11;;;;;;;10.68;8.20;;;;;;;21.92;55.52;101998.13;10460400;28;20053;-61
2021/07/19 17:30:14;;;;;;;12.45;8.07;;;;;;;21.40;56.41;101997.25;10459099;28;20049;-60
2021/07/19 17:35:20;;;;;;;11.35;6.78;;;;;;;21.95;55.23;101992.53;10459928;28;20067;-61
2021/07/19 17:40:23;;;;;;;10.63;7.97;;;;;;;21.63;57.01;101993.50;10458504;28;20123;-62
2021/07/19 17:45:26;;;;;;;13.70;8.43;;;;;;;21.78;55.31;101990.50;10459298;28;20477;-60
2021/07/19 17:50:29;;;;;;;9.93;6.80;;;;;;;21.70;56.68;101986.69;10459164;28;20493;-61
2021/07/19 17:55:31;;;;;;;9.38;6.80;;;;;;;21.44;57.13;101988.03;10457979;28;20123;-60
2021/07/19 18:00:34;;;;;;;10.68;7.60;;;;;;;21.85;58.19;101976.50;10457752;28;20485;-61
2021/07/19 18:05:37;;;;;;;9.60;7.75;;;;;;;21.48;56.67;101981.50;10459041;28;20059;-60
2021/07/19 18:10:40;;;;;;;10.55;7.05;;;;;;;21.23;58.20;101977.34;10458370;28;20600;-59
2021/07/19 18:15:44;;;;;;;13.93;7.93;;;;;;;21.26;58.11;101977.94;10456820;28;20493;-61
2021/07/19 18:20:46;;;;;;;10.65;6.72;;;;;;;20.90;59.54;101965.91;10458141;28;20060;-60
2021/07/19 18:25:59;;;;;;;10.18;7.00;;;;;;;20.49;60.07;101973.59;10457944;28;20055;-61
2021/07/19 18:31:02;;;;;;;11.90;7.13;;;;;;;20.50;61.13;101974.47;10457601;28;20505;-60
2021/07/19 18:36:05;;;;;;;8.05;7.03;;;;;;;20.23;59.05;101973.06;10457410;28;20048;-59
2021/07/19 18:41:08;;;;;;;11.07;6.88;;;;;;;20.15;59.54;101967.50;10457262;28;20053;-60
2021/07/19 18:46:10;;;;;;;8.95;6.70;;;;;;;20.06;57.56;101973.56;10456964;28;20056;-61
2021/07/19 18:51:13;;;;;;;8.95;6.82;;;;;;;19.96;56.96;101976.94;10456652;28;20414;-61
2021/07/19 18:56:15;;;;;;;9.55;6.72;;;;;;;19.54;58.73;101978.44;10456807;28;20041;-60
2021/07/19 19:01:17;;;;;;;7.65;6.15;;;;;;;19.76;59.23;101977.66;10456557;28;20053;-60
2021/07/19 19:06:21;;;;;;;11.13;7.20;;;;;;;19.46;62.13;101977.19;10456338;28;20440;-60
2021/07/19 19:11:27;;;;;;;12.77;6.68;;;;;;;19.35;62.25;101982.50;10456422;28;20397;-59
2021/07/19 19:16:30;;;;;;;8.55;7.03;;;;;;;18.83;64.60;101976.63;10455723;28;20053;-60
2021/07/19 19:21:34;;;;;;;12.43;7.88;;;;;;;18.55;66.53;101978.59;10455968;28;20056;-60
2021/07/19 19:26:36;;;;;;;7.60;6.65;;;;;;;18.27;67.34;101978.91;10455919;28;20477;-61
2021/07/19 19:31:38;;;;;;;10.75;7.68;;;;;;;18.27;67.99;101993.00;10456458;28;20045;-61
2021/07/19 19:36:41;;;;;;;8.55;6.60;;;;;;;18.08;69.58;101989.97;10456097;28;20049;-62
2021/07/19 19:41:43;;;;;;;9.82;7.10;;;;;;;17.89;69.67;102003.66;10456050;28;20049;-60
2021/07/19 19:46:46;;;;;;;12.18;8.05;;;;;;;17.70;71.07;102007.56;10454610;28;20059;-60
2021/07/19 19:51:48;;;;;;;10.00;7.40;;;;;;;17.50;71.76;102018.63;10456456;28;20099;-61
2021/07/19 19:56:54;;;;;;;11.50;9.13;;;;;;;17.11;73.37;102012.41;10455600;28;20488;-62
2021/07/19 20:01:56;;;;;;;11.80;7.60;;;;;;;17.32;71.41;102012.78;10455782;28;20140;-61
2021/07/19 20:06:59;;;;;;;10.95;7.57;;;;;;;17.23;71.81;102020.38;10461383;28;20134;-61
2021/07/19 20:12:01;;;;;;;11.25;8.40;;;;;;;16.90;73.15;102020.78;10462188;28;20049;-61
2021/07/19 20:17:04;;;;;;;9.20;7.22;;;;;;;16.90;72.77;102024.28;10463133;28;20055;-62
2021/07/19 20:22:06;;;;;;;7.43;5.75;;;;;;;16.71;72.15;102035.16;10463384;28;20063;-62
2021/07/19 20:27:09;;;;;;;12.15;7.70;;;;;;;16.53;74.17;102020.47;10462656;28;20048;-62
2021/07/19 20:32:11;;;;;;;14.10;7.90;;;;;;;16.50;74.81;102024.16;10462836;28;20052;-62
2021/07/19 20:37:15;;;;;;;9.65;7.65;;;;;;;16.33;74.13;102022.56;10461912;28;20053;-61
2021/07/19 20:42:17;;;;;;;12.10;7.80;;;;;;;16.35;73.92;102027.75;10461933;28;20059;-61
2021/07/19 20:47:19;;;;;;;9.95;7.30;;;;;;;16.05;74.52;102033.97;10461909;28;20045;-60
2021/07/19 20:52:22;;;;;;;10.15;7.40;;;;;;;15.96;75.38;102034.56;10461413;28;20485;-61
2021/07/19 20:57:24;;;;;;;11.63;7.93;;;;;;;15.85;75.92;102035.19;10460162;28;20044;-62
2021/07/19 21:02:26;;;;;;;10.65;7.30;;;;;;;15.71;75.98;102041.25;10461289;28;20045;-60
2021/07/19 21:07:29;;;;;;;14.02;8.00;;;;;;;15.60;76.00;102033.13;10460797;28;20443;-63
2021/07/19 21:12:33;;;;;;;10.85;7.93;;;;;;;15.50;76.85;102040.75;10460943;28;20041;-60
2021/07/19 21:17:35;;;;;;;12.55;8.18;;;;;;;15.54;76.67;102044.91;10458875;28;20044;-61
2021/07/19 21:22:40;;;;;;;10.25;8.27;;;;;;;15.48;76.89;102039.13;10460330;28;20055;-62
2021/07/19 21:27:43;;;;;;;15.55;9.25;;;;;;;15.40;76.43;102040.44;10460794;28;20057;-61
2021/07/19 21:32:46;;;;;;;9.18;7.32;;;;;;;15.27;77.45;102044.72;10460242;28;20056;-61
2021/07/19 21:37:49;;;;;;;9.68;7.40;;;;;;;15.20;77.12;102046.00;10459807;28;20049;-61
2021/07/19 21:42:51;;;;;;;9.70;7.78;;;;;;;15.17;76.85;102047.03;10459967;28;20057;-61
2021/07/19 21:47:54;;;;;;;10.20;7.65;;;;;;;15.13;77.10;102040.25;10458342;28;20049;-62
2021/07/19 21:52:56;;;;;;;13.15;8.90;;;;;;;15.26;74.93;102053.56;10459962;28;20048;-61
2021/07/19 21:57:59;;;;;;;12.43;8.13;;;;;;;15.01;75.90;102048.81;10458940;28;20056;-61
2021/07/19 22:03:01;;;;;;;14.00;8.82;;;;;;;14.85;77.20;102060.22;10458800;28;20507;-61
2021/07/19 22:08:06;;;;;;;13.70;7.97;;;;;;;14.98;76.31;102057.78;10458575;28;20045;-61
2021/07/19 22:13:09;;;;;;;10.85;7.97;;;;;;;14.72;77.72;102058.38;10458569;28;20045;-60
2021/07/19 22:18:12;;;;;;;12.32;8.23;;;;;;;14.62;78.44;102064.13;10458457;28;20045;-60
2021/07/19 22:23:15;;;;;;;14.88;9.02;;;;;;;14.52;77.56;102073.44;10458166;28;20056;-62
2021/07/19 22:28:17;;;;;;;14.60;8.98;;;;;;;14.55;78.48;102069.78;10456834;28;20488;-61
2021/07/19 22:33:23;;;;;;;11.48;8.40;;;;;;;14.58;78.00;102061.72;10457937;28;20071;-60
2021/07/19 22:38:25;;;;;;;12.98;8.32;;;;;;;14.36;79.04;102064.66;10457928;28;20061;-60
2021/07/19 22:43:28;;;;;;;15.00;8.15;;;;;;;14.28;78.60;102075.59;10458266;28;20057;-60
2021/07/19 22:48:30;;;;;;;13.20;9.20;;;;;;;14.16;78.31;102076.25;10457168;28;20049;-60
2021/07/19 22:53:33;;;;;;;12.95;8.82;;;;;;;14.18;79.32;102071.75;10457690;28;20053;-60
2021/07/19 22:58:36;;;;;;;16.10;9.07;;;;;;;14.24;78.28;102074.03;10456767;28;20484;-61
2021/07/19 23:03:39;;;;;;;11.98;7.90;;;;;;;14.18;78.79;102069.97;10456012;28;20059;-63
2021/07/19 23:08:41;;;;;;;11.82;7.88;;;;;;;14.12;78.83;102072.91;10456598;28;20045;-61